Decoded Metar for VGHS ( in ) (IATA:) | Meteo·Mobile Aviation Weather
aviador You're here:

VGHS Decoded Metar

in
Report Time2019-07-22 16:30:00
UTC Time2019-07-22 17:02:14
Flight Rules ifr IFR
Wind180° at 08 kt
W.Decomp.*RWY 14: 6.1 kt HW 5.1 kt RCW
Visibility4000 m
Phenomena:Haze
Clouds:Scattered 100 Hf
Expected CloudBase > 2,400 ft AGL from Temp-Dew spread
CeilingNone
Temp31°C
Dew Point25°C (70% RH)
Heat Index37.6°C
QNH1004 hPa
Raw Report
METAR VGHS 221630Z 18008KT 4000 HZ SCT100 31/25 Q1004 NOSIG=

Extra information for VGHS:More info

Social comments